Bogart, Georgia
Current Conditions -  °F | °C
As of 12:15 PM on Wednesday 26 Nov 2014 (Local Time) from KWDR Reporting Station
Clear Clear  
Wind Chill: 57°   Ceiling: Unl
Heat Index: 57°   Visibility: 10mi
Dew Point: 35°   Wind: 10mph
Humidity: 45%   Direction: 300°WNW
Pressure: 30.08"   Gusts: 18mph
Location:  33.95°N, 83.53°W
Report Text: KWDR 261715Z AUTO 30009G16KT 10SM CLR 14/02 A3008 RMK AO2 T01370018
Loading
Personal Weather Stations






























Interactive Weather Map New forecast layout! Learn more

10-Day Weather Forecast

Advertisements
Track Severe Weather on mobile